createdAt,value
2022-08-24T00:00:35.329Z,5.53
2022-08-24T00:03:02.955Z,5.60
2022-08-24T00:05:30.484Z,5.60
2022-08-24T00:07:57.914Z,5.88
2022-08-24T00:10:26.597Z,4.80
2022-08-24T00:12:53.930Z,4.47
2022-08-24T00:15:21.433Z,4.40
2022-08-24T00:17:48.777Z,5.00
2022-08-24T00:20:16.271Z,5.43
2022-08-24T00:22:43.706Z,4.97
2022-08-24T00:25:12.110Z,4.57
2022-08-24T00:27:40.043Z,4.63
2022-08-24T00:30:09.226Z,4.93
2022-08-24T00:32:37.891Z,4.22
2022-08-24T00:35:06.780Z,4.15
2022-08-24T00:37:34.295Z,4.45
2022-08-24T00:40:01.918Z,4.28
2022-08-24T00:42:29.373Z,4.63
2022-08-24T00:44:56.959Z,4.50
2022-08-24T00:47:25.866Z,4.20
2022-08-24T00:50:01.069Z,4.47
2022-08-24T00:52:31.703Z,4.32
2022-08-24T00:55:10.860Z,4.03
2022-08-24T00:57:42.603Z,4.15
2022-08-24T01:00:23.039Z,3.72
2022-08-24T01:02:53.539Z,3.65
2022-08-24T01:05:20.947Z,3.40
2022-08-24T01:07:49.413Z,3.50
2022-08-24T01:10:19.756Z,3.55
2022-08-24T01:13:00.836Z,3.35
2022-08-24T01:15:35.534Z,3.30
2022-08-24T01:18:21.979Z,3.88
2022-08-24T01:20:52.742Z,3.40
2022-08-24T01:23:40.939Z,3.47
2022-08-24T01:26:10.480Z,4.05
2022-08-24T01:28:40.025Z,3.53
2022-08-24T01:31:08.500Z,3.58
2022-08-24T01:33:35.982Z,3.70
2022-08-24T01:36:15.084Z,4.40
2022-08-24T01:38:42.602Z,3.85
2022-08-24T01:41:10.242Z,3.92
2022-08-24T01:43:39.863Z,3.80
2022-08-24T01:46:08.269Z,4.10
2022-08-24T01:48:35.664Z,4.18
2022-08-24T01:51:03.087Z,4.10
2022-08-24T01:53:31.177Z,4.32
2022-08-24T01:55:58.575Z,4.10
2022-08-24T01:58:25.937Z,3.85
2022-08-24T02:00:53.286Z,3.75
2022-08-24T02:03:22.256Z,3.85
2022-08-24T02:05:58.931Z,4.47
2022-08-24T02:08:27.647Z,4.20
2022-08-24T02:10:57.001Z,4.57
2022-08-24T02:13:25.083Z,3.97
2022-08-24T02:15:52.426Z,4.28
2022-08-24T02:18:20.043Z,4.03
2022-08-24T02:20:47.351Z,5.20
2022-08-24T02:23:14.694Z,4.53
2022-08-24T02:25:42.790Z,4.20
2022-08-24T02:28:10.418Z,4.15
2022-08-24T02:30:37.772Z,4.00
2022-08-24T02:33:07.266Z,3.97
2022-08-24T02:35:34.881Z,4.30
2022-08-24T02:38:02.268Z,4.50
2022-08-24T02:40:32.389Z,4.40
2022-08-24T02:43:00.289Z,4.53
2022-08-24T02:45:27.854Z,4.53
2022-08-24T02:47:55.349Z,4.07
2022-08-24T02:50:23.591Z,4.07
2022-08-24T02:52:51.061Z,4.28
2022-08-24T02:55:20.290Z,4.00
2022-08-24T02:57:50.804Z,3.90
2022-08-24T03:00:19.984Z,4.10
2022-08-24T03:02:52.037Z,4.15
2022-08-24T03:05:20.299Z,3.70
2022-08-24T03:07:47.703Z,4.00
2022-08-24T03:10:15.209Z,4.05
2022-08-24T03:12:42.871Z,4.32
2022-08-24T03:15:11.413Z,3.90
2022-08-24T03:17:39.859Z,4.07
2022-08-24T03:20:10.305Z,3.63
2022-08-24T03:22:38.814Z,3.60
2022-08-24T03:25:06.527Z,3.40
2022-08-24T03:27:34.173Z,3.38
2022-08-24T03:30:01.590Z,3.83
2022-08-24T03:32:29.496Z,3.58
2022-08-24T03:34:56.897Z,3.50
2022-08-24T03:37:24.461Z,3.95
2022-08-24T03:39:52.515Z,3.70
2022-08-24T03:42:20.648Z,3.95
2022-08-24T03:44:48.013Z,3.80
2022-08-24T03:47:16.754Z,4.03
2022-08-24T03:49:44.113Z,4.60
2022-08-24T03:52:11.527Z,4.22
2022-08-24T03:54:38.884Z,4.57
2022-08-24T03:57:06.321Z,4.35
2022-08-24T03:59:33.676Z,4.18
2022-08-24T04:02:07.117Z,4.60
2022-08-24T04:04:37.662Z,4.45
2022-08-24T04:07:05.718Z,4.22
2022-08-24T04:09:33.659Z,4.28
2022-08-24T04:12:01.003Z,4.28
2022-08-24T04:14:29.270Z,4.15
2022-08-24T04:17:02.346Z,4.55
2022-08-24T04:19:34.569Z,4.65
2022-08-24T04:22:02.031Z,4.72
2022-08-24T04:24:30.169Z,4.60
2022-08-24T04:26:57.586Z,4.90
2022-08-24T04:29:26.069Z,4.70
2022-08-24T04:31:53.858Z,4.68
2022-08-24T04:34:22.539Z,4.32
2022-08-24T04:36:50.907Z,4.60
2022-08-24T04:39:18.735Z,4.25
2022-08-24T04:41:45.989Z,4.55
2022-08-24T04:44:15.326Z,4.30
2022-08-24T04:46:42.739Z,5.15
2022-08-24T04:49:10.714Z,4.90
2022-08-24T04:51:38.730Z,4.22
2022-08-24T04:54:08.274Z,4.22
2022-08-24T04:56:35.909Z,4.38
2022-08-24T04:59:05.501Z,4.35
2022-08-24T05:01:33.714Z,4.00
2022-08-24T05:04:03.771Z,4.15
2022-08-24T05:06:32.435Z,4.53
2022-08-24T05:09:00.471Z,4.35
2022-08-24T05:11:29.232Z,4.50
2022-08-24T05:13:57.435Z,4.72
2022-08-24T05:16:25.766Z,4.22
2022-08-24T05:18:54.656Z,4.57
2022-08-24T05:21:23.115Z,4.30
2022-08-24T05:23:51.310Z,4.45
2022-08-24T05:26:21.220Z,4.72
2022-08-24T05:28:50.490Z,4.53
2022-08-24T05:31:19.849Z,4.88
2022-08-24T05:33:48.192Z,4.47
2022-08-24T05:36:18.133Z,4.18
2022-08-24T05:38:45.566Z,3.80
2022-08-24T05:41:13.770Z,3.92
2022-08-24T05:43:42.971Z,4.25
2022-08-24T05:46:10.660Z,3.97
2022-08-24T05:48:38.228Z,4.30
2022-08-24T05:51:08.987Z,4.53
2022-08-24T05:53:46.388Z,4.18
2022-08-24T05:56:15.722Z,4.32
2022-08-24T05:58:43.144Z,4.30
2022-08-24T06:01:15.623Z,5.10
2022-08-24T06:03:43.079Z,4.45
2022-08-24T06:06:15.393Z,4.35
2022-08-24T06:08:46.059Z,4.80
2022-08-24T06:11:24.767Z,4.50
2022-08-24T06:14:07.795Z,4.68
2022-08-24T06:16:40.188Z,4.75
2022-08-24T06:19:08.604Z,5.25
2022-08-24T06:21:37.967Z,5.00
2022-08-24T06:24:06.309Z,4.45
2022-08-24T06:26:52.421Z,4.93
2022-08-24T06:29:20.221Z,4.93
2022-08-24T06:31:54.707Z,4.60
2022-08-24T06:34:24.286Z,5.03
2022-08-24T06:36:52.788Z,4.13
2022-08-24T06:39:23.177Z,3.80
2022-08-24T06:41:52.827Z,4.22
2022-08-24T06:44:30.192Z,4.00
2022-08-24T06:47:06.840Z,3.95
2022-08-24T06:49:34.573Z,4.20
2022-08-24T06:52:06.932Z,3.83
2022-08-24T06:54:34.412Z,4.20
2022-08-24T06:57:04.180Z,3.80
2022-08-24T06:59:32.098Z,3.80
2022-08-24T07:01:59.842Z,3.60
2022-08-24T07:04:29.202Z,3.45
2022-08-24T07:07:14.979Z,3.28
2022-08-24T07:09:43.599Z,5.18
2022-08-24T07:12:11.032Z,4.47
2022-08-24T07:14:38.582Z,3.20
2022-08-24T07:17:06.110Z,3.25
2022-08-24T07:19:33.686Z,3.60
2022-08-24T07:22:01.961Z,3.17
2022-08-24T07:24:29.389Z,3.17
2022-08-24T07:26:57.670Z,2.90
2022-08-24T07:29:46.229Z,3.20
2022-08-24T07:32:12.596Z,3.22
2022-08-24T07:34:41.952Z,3.25
2022-08-24T07:37:09.369Z,3.45
2022-08-24T07:39:40.130Z,3.50
2022-08-24T07:42:20.705Z,2.97
2022-08-24T07:44:52.970Z,3.70
2022-08-24T07:47:37.432Z,3.70
2022-08-24T07:50:14.881Z,3.60
2022-08-24T07:52:42.806Z,3.40
2022-08-24T07:55:11.647Z,3.50
2022-08-24T07:57:40.027Z,3.45
2022-08-24T08:00:10.437Z,3.72
2022-08-24T08:02:45.367Z,3.50
2022-08-24T08:05:18.378Z,3.40
2022-08-24T08:07:52.256Z,3.67
2022-08-24T08:10:20.500Z,3.30
2022-08-24T08:12:47.976Z,3.30
2022-08-24T08:15:15.340Z,3.80
2022-08-24T08:17:55.805Z,3.50
2022-08-24T08:20:23.388Z,3.30
2022-08-24T08:23:09.638Z,3.13
2022-08-24T08:25:57.727Z,3.15
2022-08-24T08:28:36.359Z,3.60
2022-08-24T08:31:05.893Z,3.40
2022-08-24T08:33:36.195Z,3.00
2022-08-24T08:36:11.156Z,3.40
2022-08-24T08:38:44.350Z,3.42
2022-08-24T08:41:22.076Z,3.53
2022-08-24T08:44:17.664Z,3.65
2022-08-24T08:47:19.097Z,3.60
2022-08-24T08:50:25.784Z,3.65
2022-08-24T08:53:08.343Z,3.45
2022-08-24T08:56:00.871Z,3.38
2022-08-24T08:58:46.727Z,3.15
2022-08-24T09:01:56.583Z,3.70
2022-08-24T09:05:24.001Z,3.55
2022-08-24T09:08:00.605Z,3.35
2022-08-24T09:10:40.623Z,3.10
2022-08-24T09:13:29.597Z,3.70
2022-08-24T09:16:25.211Z,3.42
2022-08-24T09:19:00.759Z,3.80
2022-08-24T09:21:44.716Z,3.28
2022-08-24T09:24:52.151Z,3.53
2022-08-24T09:28:04.778Z,3.38
2022-08-24T09:30:44.980Z,3.20
2022-08-24T09:33:22.235Z,3.45
2022-08-24T09:36:01.566Z,3.58
2022-08-24T09:38:58.999Z,3.50
2022-08-24T09:41:55.839Z,3.30
2022-08-24T09:44:26.199Z,3.13
2022-08-24T09:47:12.156Z,3.67
2022-08-24T09:49:51.721Z,3.08
2022-08-24T09:52:37.595Z,3.53
2022-08-24T09:55:36.960Z,4.18
2022-08-24T09:58:42.690Z,3.28
2022-08-24T10:01:47.755Z,3.20
2022-08-24T10:04:19.830Z,3.47
2022-08-24T10:07:12.135Z,3.67
2022-08-24T10:10:21.524Z,3.13
2022-08-24T10:13:04.251Z,3.88
2022-08-24T10:15:36.781Z,3.20
2022-08-24T10:18:26.097Z,3.20
2022-08-24T10:21:23.282Z,3.47
2022-08-24T10:24:03.067Z,3.30
2022-08-24T10:26:52.982Z,3.08
2022-08-24T10:29:43.015Z,3.20
2022-08-24T10:32:19.412Z,3.15
2022-08-24T10:35:00.453Z,3.40
2022-08-24T10:38:18.646Z,4.05
2022-08-24T10:41:10.702Z,3.22
2022-08-24T10:44:08.730Z,3.40
2022-08-24T10:46:50.385Z,3.22
2022-08-24T10:49:35.877Z,3.22
2022-08-24T10:52:31.461Z,3.72
2022-08-24T10:55:15.843Z,3.65
2022-08-24T10:58:12.408Z,3.55
2022-08-24T11:00:40.057Z,3.60
2022-08-24T11:03:18.492Z,3.20
2022-08-24T11:05:51.709Z,3.00
2022-08-24T11:08:34.902Z,2.63
2022-08-24T11:11:09.364Z,2.90
2022-08-24T11:16:06.104Z,3.35
2022-08-24T11:18:54.507Z,3.25
2022-08-24T11:21:51.726Z,3.72
2022-08-24T11:24:19.069Z,3.40
2022-08-24T11:27:19.625Z,3.03
2022-08-24T11:29:50.049Z,3.63
2022-08-24T11:32:32.487Z,3.38
2022-08-24T11:35:07.247Z,2.90
2022-08-24T11:37:37.338Z,2.60
2022-08-24T11:40:06.800Z,3.03
2022-08-24T11:43:02.310Z,3.10
2022-08-24T11:45:42.617Z,3.30
2022-08-24T11:48:29.975Z,3.10
2022-08-24T11:51:35.566Z,3.05
2022-08-24T11:54:27.109Z,3.00
2022-08-24T11:57:20.575Z,3.00
2022-08-24T12:00:11.850Z,3.10
2022-08-24T12:02:51.612Z,2.55
2022-08-24T12:05:28.698Z,2.78
2022-08-24T12:08:35.459Z,3.08
2022-08-24T12:11:12.136Z,2.78
2022-08-24T12:13:42.415Z,2.72
2022-08-24T12:16:34.084Z,2.50
2022-08-24T12:19:30.699Z,2.70
2022-08-24T12:22:04.694Z,2.58
2022-08-24T12:24:33.886Z,3.45
2022-08-24T12:27:13.250Z,2.60
2022-08-24T12:30:14.778Z,2.50
2022-08-24T12:32:47.876Z,2.90
2022-08-24T12:35:28.509Z,2.47
2022-08-24T12:38:03.016Z,2.67
2022-08-24T12:40:48.916Z,2.53
2022-08-24T12:43:48.895Z,2.50
2022-08-24T12:46:17.387Z,2.47
2022-08-24T12:48:57.911Z,2.38
2022-08-24T12:51:56.401Z,2.50
2022-08-24T12:54:57.000Z,2.83
2022-08-24T12:57:53.983Z,2.72
2022-08-24T13:00:37.079Z,2.53
2022-08-24T13:03:06.481Z,2.30
2022-08-24T13:05:44.342Z,2.00
2022-08-24T13:08:15.472Z,2.67
2022-08-24T13:10:45.647Z,2.30
2022-08-24T13:13:16.665Z,2.45
2022-08-24T13:15:53.401Z,2.40
2022-08-24T13:18:20.716Z,2.50
2022-08-24T13:20:48.045Z,2.40
2022-08-24T13:23:18.741Z,2.83
2022-08-24T13:25:54.972Z,2.28
2022-08-24T13:28:22.608Z,2.03
2022-08-24T13:31:02.914Z,2.75
2022-08-24T13:33:32.297Z,2.20
2022-08-24T13:36:22.107Z,2.83
2022-08-24T13:38:58.678Z,2.10
2022-08-24T13:41:32.706Z,2.30
2022-08-24T13:44:18.779Z,2.40
2022-08-24T13:47:11.392Z,3.83
2022-08-24T13:50:01.671Z,2.50
2022-08-24T13:53:10.576Z,2.30
2022-08-24T13:55:50.533Z,2.10
2022-08-24T13:58:39.366Z,2.20
2022-08-24T14:01:38.560Z,2.15
2022-08-24T14:04:35.506Z,2.25
2022-08-24T14:07:19.283Z,2.22
2022-08-24T14:09:52.297Z,2.30
2022-08-24T14:12:34.637Z,2.30
2022-08-24T14:15:25.347Z,1.75
2022-08-24T14:18:11.382Z,1.90
2022-08-24T14:21:02.315Z,2.10
2022-08-24T14:23:47.136Z,3.42
2022-08-24T14:26:33.353Z,2.03
2022-08-24T14:29:31.266Z,2.20
2022-08-24T14:32:12.286Z,2.20
2022-08-24T14:34:52.801Z,2.58
2022-08-24T14:37:25.008Z,2.30
2022-08-24T14:39:58.511Z,2.85
2022-08-24T14:43:00.975Z,2.10
2022-08-24T14:46:06.153Z,2.83
2022-08-24T14:48:55.609Z,2.53
2022-08-24T14:51:35.038Z,2.28
2022-08-24T14:54:04.074Z,2.03
2022-08-24T14:56:44.097Z,2.00
2022-08-24T14:59:48.970Z,1.90
2022-08-24T15:02:48.500Z,2.28
2022-08-24T15:05:58.925Z,2.13
2022-08-24T15:08:44.741Z,2.22
2022-08-24T15:11:14.358Z,2.10
2022-08-24T15:13:41.736Z,2.15
2022-08-24T15:16:13.129Z,1.90
2022-08-24T15:18:44.386Z,2.03
2022-08-24T15:21:23.831Z,2.15
2022-08-24T15:24:16.689Z,1.92
2022-08-24T15:27:04.447Z,2.17
2022-08-24T15:29:33.421Z,2.00
2022-08-24T15:32:09.786Z,2.28
2022-08-24T15:34:48.756Z,2.33
2022-08-24T15:37:28.216Z,2.38
2022-08-24T15:39:55.620Z,2.20
2022-08-24T15:42:23.182Z,2.45
2022-08-24T15:44:50.569Z,1.90
2022-08-24T15:47:32.837Z,1.95
2022-08-24T15:50:02.027Z,1.80
2022-08-24T15:52:32.226Z,2.00
2022-08-24T15:55:01.346Z,1.85
2022-08-24T15:57:56.192Z,2.05
2022-08-24T16:00:44.773Z,1.73
2022-08-24T16:03:27.046Z,2.35
2022-08-24T16:05:56.442Z,2.30
2022-08-24T16:08:23.878Z,1.63
2022-08-24T16:10:53.744Z,2.00
2022-08-24T16:13:26.742Z,2.13
2022-08-24T16:16:03.360Z,1.90
2022-08-24T16:19:08.739Z,2.15
2022-08-24T16:21:51.258Z,2.28
2022-08-24T16:24:21.955Z,2.38
2022-08-24T16:27:00.093Z,2.20
2022-08-24T16:29:38.795Z,2.08
2022-08-24T16:32:48.379Z,2.53
2022-08-24T16:35:20.825Z,2.15
2022-08-24T16:37:48.313Z,2.33
2022-08-24T16:40:15.745Z,2.10
2022-08-24T16:42:43.208Z,2.05
2022-08-24T16:45:12.359Z,2.38
2022-08-24T16:47:39.690Z,1.80
2022-08-24T16:50:07.275Z,2.20
2022-08-24T16:52:34.600Z,2.88
2022-08-24T16:55:01.955Z,1.98
2022-08-24T16:57:31.075Z,2.10
2022-08-24T16:59:58.705Z,2.97
2022-08-24T17:02:26.242Z,2.30
2022-08-24T17:04:54.771Z,3.45
2022-08-24T17:07:24.540Z,2.75
2022-08-24T17:09:51.910Z,2.38
2022-08-24T17:12:19.315Z,2.00
2022-08-24T17:14:46.674Z,3.00
2022-08-24T17:17:16.777Z,2.80
2022-08-24T17:19:47.351Z,2.50
2022-08-24T17:22:16.499Z,4.13
2022-08-24T17:24:44.806Z,2.90
2022-08-24T17:27:12.943Z,2.10
2022-08-24T17:29:41.688Z,2.17
2022-08-24T17:32:09.209Z,2.72
2022-08-24T17:34:36.659Z,2.25
2022-08-24T17:37:04.035Z,2.20
2022-08-24T17:39:31.691Z,2.45
2022-08-24T17:41:59.116Z,2.47
2022-08-24T17:44:28.878Z,2.75
2022-08-24T17:46:57.962Z,2.45
2022-08-24T17:49:26.118Z,2.90
2022-08-24T17:51:54.886Z,2.67
2022-08-24T17:54:22.527Z,2.58
2022-08-24T17:56:50.990Z,2.97
2022-08-24T17:59:25.761Z,3.30
2022-08-24T18:01:55.040Z,4.03
2022-08-24T18:04:25.777Z,3.42
2022-08-24T18:06:53.356Z,2.85
2022-08-24T18:09:37.246Z,4.40
2022-08-24T18:12:05.793Z,2.80
2022-08-24T18:14:34.584Z,2.70
2022-08-24T18:17:02.930Z,3.30
2022-08-24T18:19:31.481Z,3.05
2022-08-24T18:21:58.911Z,2.67
2022-08-24T18:24:26.378Z,2.90
2022-08-24T18:26:53.770Z,3.35
2022-08-24T18:29:21.445Z,3.53
2022-08-24T18:31:49.347Z,3.40
2022-08-24T18:34:21.157Z,2.92
2022-08-24T18:36:48.950Z,3.25
2022-08-24T18:39:16.405Z,4.18
2022-08-24T18:41:49.359Z,3.45
2022-08-24T18:44:22.209Z,2.88
2022-08-24T18:46:49.635Z,3.17
2022-08-24T18:49:17.881Z,2.80
2022-08-24T18:51:45.343Z,3.38
2022-08-24T18:54:18.531Z,2.90
2022-08-24T18:56:46.130Z,3.00
2022-08-24T18:59:14.683Z,7.22
2022-08-24T19:02:01.671Z,4.80
2022-08-24T19:04:30.732Z,3.30
2022-08-24T19:07:01.153Z,2.85
2022-08-24T19:09:33.503Z,3.42
2022-08-24T19:12:02.924Z,3.15
2022-08-24T19:14:30.421Z,3.30
2022-08-24T19:16:57.826Z,3.67
2022-08-24T19:19:25.173Z,3.13
2022-08-24T19:21:52.513Z,3.80
2022-08-24T19:24:23.534Z,3.30
2022-08-24T19:26:50.934Z,3.33
2022-08-24T19:29:33.429Z,2.80
2022-08-24T19:32:09.943Z,3.00
2022-08-24T19:37:10.024Z,3.33
2022-08-24T19:39:37.403Z,2.70
2022-08-24T19:42:05.016Z,3.15
2022-08-24T19:44:51.957Z,2.97
2022-08-24T19:47:19.466Z,2.95
2022-08-24T19:49:46.810Z,3.00
2022-08-24T19:52:14.626Z,3.05
2022-08-24T19:54:44.498Z,3.00
2022-08-24T19:57:48.026Z,3.42
2022-08-24T20:00:18.184Z,3.20
2022-08-24T20:02:49.218Z,3.20
2022-08-24T20:05:17.386Z,3.28
2022-08-24T20:07:45.046Z,3.20
2022-08-24T20:10:13.310Z,3.03
2022-08-24T20:12:41.282Z,3.10
2022-08-24T20:15:09.011Z,3.05
2022-08-24T20:17:36.532Z,2.95
2022-08-24T20:20:05.597Z,2.90
2022-08-24T20:22:32.933Z,3.05
2022-08-24T20:25:00.307Z,2.95
2022-08-24T20:27:28.199Z,2.90
2022-08-24T20:29:55.697Z,3.30
2022-08-24T20:32:23.189Z,2.90
2022-08-24T20:34:50.631Z,3.10
2022-08-24T20:37:22.940Z,3.30
2022-08-24T20:39:50.359Z,3.03
2022-08-24T20:42:21.249Z,2.75
2022-08-24T20:44:50.220Z,3.08
2022-08-24T20:47:17.781Z,2.92
2022-08-24T20:49:45.469Z,3.28
2022-08-24T20:52:13.062Z,3.47
2022-08-24T20:54:40.507Z,3.72
2022-08-24T20:57:08.655Z,3.40
2022-08-24T20:59:35.999Z,3.13
2022-08-24T21:02:03.827Z,3.35
2022-08-24T21:04:31.177Z,3.40
2022-08-24T21:06:58.561Z,3.53
2022-08-24T21:09:25.907Z,3.53
2022-08-24T21:11:53.209Z,3.05
2022-08-24T21:14:20.587Z,3.10
2022-08-24T21:16:48.019Z,3.33
2022-08-24T21:19:18.787Z,3.10
2022-08-24T21:21:46.893Z,3.20
2022-08-24T21:24:15.527Z,3.00
2022-08-24T21:26:42.871Z,3.08
2022-08-24T21:29:10.258Z,3.45
2022-08-24T21:31:38.037Z,2.92
2022-08-24T21:34:24.846Z,3.60
2022-08-24T21:36:54.321Z,3.67
2022-08-24T21:39:21.835Z,3.20
2022-08-24T21:41:49.243Z,3.60
2022-08-24T21:44:16.910Z,3.88
2022-08-24T21:46:44.293Z,3.53
2022-08-24T21:49:12.303Z,3.70
2022-08-24T21:51:40.153Z,3.92
2022-08-24T21:54:07.746Z,3.63
2022-08-24T21:56:35.223Z,4.18
2022-08-24T21:59:03.091Z,4.13
2022-08-24T22:01:30.960Z,4.10
2022-08-24T22:03:58.450Z,4.30
2022-08-24T22:06:30.988Z,4.47
2022-08-24T22:08:59.068Z,3.83
2022-08-24T22:11:26.513Z,4.43
2022-08-24T22:13:54.129Z,4.22
2022-08-24T22:16:21.963Z,4.50
2022-08-24T22:18:49.513Z,4.65
2022-08-24T22:21:19.749Z,4.65
2022-08-24T22:23:47.079Z,4.63
2022-08-24T22:26:14.489Z,4.75
2022-08-24T22:28:41.962Z,5.28
2022-08-24T22:31:20.464Z,5.05
2022-08-24T22:33:48.289Z,5.30
2022-08-24T22:36:15.903Z,5.20
2022-08-24T22:38:43.351Z,5.00
2022-08-24T22:41:10.881Z,4.80
2022-08-24T22:43:56.611Z,5.20
2022-08-24T22:46:24.381Z,5.80
2022-08-24T22:48:52.095Z,5.28
2022-08-24T22:51:19.543Z,5.13
2022-08-24T22:53:46.970Z,5.03
2022-08-24T22:56:16.243Z,5.13
2022-08-24T22:58:43.771Z,4.85
2022-08-24T23:01:21.169Z,4.80
2022-08-24T23:03:49.855Z,4.95
2022-08-24T23:06:17.482Z,5.10
2022-08-24T23:08:45.024Z,4.90
2022-08-24T23:11:12.584Z,5.15
2022-08-24T23:13:39.909Z,5.43
2022-08-24T23:16:08.486Z,5.03
2022-08-24T23:18:54.758Z,4.75
2022-08-24T23:21:22.189Z,5.15
2022-08-24T23:23:50.403Z,5.10
2022-08-24T23:26:18.576Z,4.90
2022-08-24T23:28:49.434Z,5.32
2022-08-24T23:31:18.869Z,5.57
2022-08-24T23:33:46.693Z,4.82
2022-08-24T23:36:20.925Z,5.38
2022-08-24T23:38:48.946Z,5.53
2022-08-24T23:41:18.600Z,5.25
2022-08-24T23:43:46.009Z,5.40
2022-08-24T23:46:13.709Z,5.47
2022-08-24T23:48:41.349Z,5.40
2022-08-24T23:51:10.055Z,5.32
2022-08-24T23:53:37.588Z,5.38
2022-08-24T23:56:13.330Z,5.25
2022-08-24T23:58:42.619Z,5.88
